createdAt,value
2024-03-09T00:03:01.075Z,3.6
2024-03-09T00:04:01.056Z,3.7
2024-03-09T00:05:01.218Z,3.6
2024-03-09T00:08:00.993Z,3.7
2024-03-09T00:13:01.120Z,3.8
2024-03-09T00:15:01.367Z,3.8
2024-03-09T00:17:01.032Z,3.6
2024-03-09T00:18:01.064Z,3.7
2024-03-09T00:19:01.053Z,3.8
2024-03-09T00:22:00.994Z,3.7
2024-03-09T00:24:01.089Z,3.9
2024-03-09T00:27:01.222Z,3.7
2024-03-09T00:29:01.028Z,3.8
2024-03-09T00:31:01.118Z,3.9
2024-03-09T00:33:01.240Z,3.7
2024-03-09T00:34:01.229Z,3.8
2024-03-09T00:36:01.057Z,3.9
2024-03-09T00:37:01.028Z,3.8
2024-03-09T00:40:01.073Z,3.9
2024-03-09T00:41:01.163Z,3.8
2024-03-09T00:43:01.082Z,3.9
2024-03-09T00:45:01.161Z,3.8
2024-03-09T00:47:01.198Z,3.7
2024-03-09T00:49:01.040Z,3.9
2024-03-09T00:50:01.098Z,3.8
2024-03-09T00:52:01.052Z,3.9
2024-03-09T00:54:01.237Z,3.9
2024-03-09T00:56:01.038Z,3.7
2024-03-09T00:58:01.025Z,3.8
2024-03-09T01:00:01.273Z,3.9
2024-03-09T01:01:01.435Z,3.8
2024-03-09T01:03:01.309Z,3.9
2024-03-09T01:17:01.080Z,3.8
2024-03-09T01:19:01.300Z,3.9
2024-03-09T01:22:01.119Z,4
2024-03-09T01:33:01.480Z,3.9
2024-03-09T01:35:01.035Z,3.9
2024-03-09T01:37:00.992Z,4
2024-03-09T01:38:01.485Z,3.9
2024-03-09T01:41:01.120Z,4.1
2024-03-09T01:44:00.987Z,3.7
2024-03-09T01:45:01.088Z,4
2024-03-09T01:48:01.097Z,3.9
2024-03-09T01:52:01.007Z,4
2024-03-09T01:53:01.084Z,3.9
2024-03-09T01:55:01.041Z,4
2024-03-09T01:57:01.150Z,3.9
2024-03-09T01:59:01.111Z,3.9
2024-03-09T02:02:01.232Z,3.8
2024-03-09T02:03:01.109Z,3.9
2024-03-09T02:05:01.066Z,3.9
2024-03-09T02:07:00.976Z,3.8
2024-03-09T02:08:01.017Z,3.9
2024-03-09T02:10:01.062Z,3.8
2024-03-09T02:12:01.082Z,3.8
2024-03-09T02:14:01.103Z,3.9
2024-03-09T02:15:01.312Z,3.8
2024-03-09T02:17:01.011Z,3.9
2024-03-09T02:25:00.989Z,3.8
2024-03-09T02:31:01.034Z,4
2024-03-09T02:32:01.129Z,3.8
2024-03-09T02:35:01.036Z,3.8
2024-03-09T02:36:01.134Z,3.9
2024-03-09T02:41:01.130Z,3.9
2024-03-09T02:43:01.121Z,4
2024-03-09T02:44:01.063Z,3.8
2024-03-09T02:46:00.962Z,3.9
2024-03-09T02:49:00.998Z,3.8
2024-03-09T02:51:01.086Z,4
2024-03-09T02:54:01.069Z,3.9
2024-03-09T02:56:01.072Z,3.9
2024-03-09T02:59:01.098Z,3.8
2024-03-09T03:00:01.162Z,3.9
2024-03-09T03:03:01.078Z,3.8
2024-03-09T03:07:01.019Z,3.8
2024-03-09T03:08:01.108Z,3.9
2024-03-09T03:13:01.021Z,3.8
2024-03-09T03:16:01.019Z,3.9
2024-03-09T03:17:01.164Z,3.8
2024-03-09T03:22:01.007Z,3.9
2024-03-09T03:23:01.235Z,3.8
2024-03-09T03:26:01.038Z,3.9
2024-03-09T03:27:01.111Z,3.8
2024-03-09T03:29:01.064Z,3.9
2024-03-09T03:33:01.110Z,3.8
2024-03-09T03:35:01.111Z,3.7
2024-03-09T03:37:01.152Z,3.8
2024-03-09T03:39:01.240Z,3.7
2024-03-09T03:41:01.028Z,3.6
2024-03-09T03:42:01.126Z,3.7
2024-03-09T03:44:01.139Z,3.5
2024-03-09T03:45:01.052Z,3.6
2024-03-09T03:49:01.018Z,3.5
2024-03-09T03:57:01.075Z,3.6
2024-03-09T04:01:01.068Z,3.4
2024-03-09T04:02:01.111Z,3.5
2024-03-09T04:04:01.040Z,3.4
2024-03-09T04:05:01.071Z,3.5
2024-03-09T04:06:01.136Z,3.4
2024-03-09T04:08:01.125Z,3.4
2024-03-09T04:09:01.188Z,3.5
2024-03-09T04:11:01.380Z,3.2
2024-03-09T04:13:01.070Z,3.2
2024-03-09T04:15:01.338Z,3.5
2024-03-09T04:18:01.079Z,3.2
2024-03-09T04:21:01.222Z,3.2
2024-03-09T04:23:01.069Z,3.3
2024-03-09T04:24:01.153Z,3.2
2024-03-09T04:26:01.136Z,3.3
2024-03-09T04:28:01.055Z,3.2
2024-03-09T04:29:01.058Z,3.3
2024-03-09T04:30:01.203Z,3.1
2024-03-09T04:32:01.077Z,3.1
2024-03-09T04:33:01.231Z,3.2
2024-03-09T04:35:01.073Z,3.1
2024-03-09T04:36:01.170Z,3.2
2024-03-09T04:38:01.040Z,3.2
2024-03-09T04:42:01.209Z,3.1
2024-03-09T04:44:01.113Z,3.1
2024-03-09T04:48:01.212Z,3.2
2024-03-09T04:50:01.167Z,3.1
2024-03-09T04:52:01.032Z,3.2
2024-03-09T04:54:01.046Z,3.1
2024-03-09T04:55:01.103Z,3.2
2024-03-09T04:58:01.039Z,3.1
2024-03-09T05:02:00.992Z,3.2
2024-03-09T05:04:00.988Z,3
2024-03-09T05:06:01.134Z,3.1
2024-03-09T05:10:01.017Z,3
2024-03-09T05:12:01.177Z,3.1
2024-03-09T05:14:01.061Z,3
2024-03-09T05:15:01.215Z,3.1
2024-03-09T05:18:01.366Z,3.2
2024-03-09T05:21:01.081Z,3.2
2024-03-09T05:23:01.188Z,2.9
2024-03-09T05:25:01.110Z,3.1
2024-03-09T05:34:01.015Z,3.2
2024-03-09T05:35:01.146Z,3
2024-03-09T05:36:01.082Z,3.1
2024-03-09T05:38:01.081Z,3
2024-03-09T05:40:00.990Z,3.1
2024-03-09T05:41:01.007Z,3
2024-03-09T05:42:01.042Z,3.1
2024-03-09T05:43:01.262Z,3
2024-03-09T05:46:01.078Z,3.1
2024-03-09T05:47:01.120Z,3
2024-03-09T05:53:01.388Z,2.9
2024-03-09T05:54:01.188Z,3.1
2024-03-09T05:56:01.077Z,2.9
2024-03-09T05:59:01.119Z,3
2024-03-09T06:00:01.151Z,2.9
2024-03-09T06:01:01.250Z,2.8
2024-03-09T06:03:01.398Z,2.8
2024-03-09T06:05:01.206Z,2.8
2024-03-09T06:06:01.205Z,3
2024-03-09T06:08:01.201Z,2.9
2024-03-09T06:09:01.699Z,3
2024-03-09T06:13:01.446Z,2.9
2024-03-09T06:20:01.387Z,3.1
2024-03-09T06:21:01.655Z,3
2024-03-09T06:23:01.394Z,3.2
2024-03-09T06:25:01.312Z,3.3
2024-03-09T06:27:01.423Z,3.4
2024-03-09T06:28:01.549Z,3.5
2024-03-09T06:31:01.368Z,3.6
2024-03-09T06:33:02.161Z,3.8
2024-03-09T06:34:01.218Z,3.9
2024-03-09T06:35:01.516Z,4
2024-03-09T06:40:01.217Z,4.5
2024-03-09T06:46:01.477Z,6.1
2024-03-09T06:48:01.423Z,6.4
2024-03-09T06:50:01.314Z,6.6
2024-03-09T06:51:01.206Z,6.8
2024-03-09T06:53:01.388Z,7.1
2024-03-09T06:54:01.379Z,7.2
2024-03-09T06:55:01.432Z,7.3
2024-03-09T06:57:01.257Z,7
2024-03-09T06:59:01.404Z,6.6
2024-03-09T07:01:01.779Z,6.2
2024-03-09T07:03:01.449Z,5.9
2024-03-09T07:05:01.411Z,5.5
2024-03-09T07:07:01.346Z,5.3
2024-03-09T07:10:01.453Z,5.1
2024-03-09T07:12:01.223Z,5.2
2024-03-09T07:17:01.329Z,5
2024-03-09T07:20:01.054Z,5
2024-03-09T07:24:01.219Z,5.5
2024-03-09T07:26:01.176Z,6
2024-03-09T07:27:02.030Z,6.3
2024-03-09T07:29:01.274Z,6.7
2024-03-09T07:31:01.130Z,7.1
2024-03-09T07:32:01.197Z,7.2
2024-03-09T07:34:01.139Z,7.3
2024-03-09T07:35:01.281Z,7.4
2024-03-09T07:38:01.733Z,7.3
2024-03-09T07:39:01.149Z,7.4
2024-03-09T07:40:01.210Z,7.4
2024-03-09T07:42:01.048Z,7.2
2024-03-09T07:43:01.241Z,7.3
2024-03-09T07:46:01.087Z,7.2
2024-03-09T07:51:02.870Z,7.1
2024-03-09T07:54:01.210Z,6.9
2024-03-09T07:56:01.118Z,6.8
2024-03-09T07:57:01.368Z,6.7
2024-03-09T08:02:01.233Z,6.4
2024-03-09T08:03:01.124Z,6.3
2024-03-09T08:05:01.158Z,6.4
2024-03-09T08:10:01.149Z,6.2
2024-03-09T08:11:01.410Z,6.3
2024-03-09T08:14:01.127Z,6.3
2024-03-09T08:15:01.253Z,6.2
2024-03-09T08:17:01.204Z,6.2
2024-03-09T08:22:01.195Z,6.3
2024-03-09T08:24:01.179Z,6.4
2024-03-09T08:25:01.246Z,6.3
2024-03-09T08:28:01.030Z,6.2
2024-03-09T08:29:01.301Z,6.4
2024-03-09T08:35:01.097Z,6.5
2024-03-09T08:38:01.426Z,6.7
2024-03-09T08:39:01.252Z,6.6
2024-03-09T08:41:01.248Z,6.7
2024-03-09T08:47:01.320Z,6.8
2024-03-09T08:49:01.140Z,7.1
2024-03-09T08:54:01.043Z,7.2
2024-03-09T08:55:01.196Z,7.3
2024-03-09T08:57:01.166Z,7.2
2024-03-09T08:59:01.356Z,7.3
2024-03-09T09:04:01.024Z,7.2
2024-03-09T09:05:01.115Z,7.4
2024-03-09T09:06:01.134Z,7.5
2024-03-09T09:08:01.366Z,7.6
2024-03-09T09:11:01.324Z,7.7
2024-03-09T09:15:01.192Z,7.9
2024-03-09T09:18:01.208Z,7.7
2024-03-09T09:19:01.236Z,7.8
2024-03-09T09:20:03.996Z,7.7
2024-03-09T09:22:01.198Z,7.8
2024-03-09T09:25:01.175Z,7.7
2024-03-09T09:29:01.155Z,8
2024-03-09T09:31:01.172Z,7.9
2024-03-09T09:34:01.032Z,8.2
2024-03-09T09:36:01.178Z,8.1
2024-03-09T09:38:01.434Z,8.2
2024-03-09T09:40:01.146Z,8
2024-03-09T09:41:01.234Z,8.3
2024-03-09T09:44:01.161Z,8.5
2024-03-09T09:45:01.394Z,8.6
2024-03-09T09:51:01.108Z,8.7
2024-03-09T09:53:01.130Z,8.9
2024-03-09T09:54:01.249Z,8.7
2024-03-09T09:57:01.069Z,8.9
2024-03-09T10:00:01.098Z,9
2024-03-09T10:01:01.472Z,9.1
2024-03-09T10:03:01.096Z,9.4
2024-03-09T10:05:01.167Z,9.3
2024-03-09T10:07:01.262Z,9.2
2024-03-09T10:10:01.107Z,9.2
2024-03-09T10:12:01.276Z,9.1
2024-03-09T10:13:01.342Z,9.2
2024-03-09T10:15:01.669Z,9.1
2024-03-09T10:17:01.227Z,9.1
2024-03-09T10:19:01.244Z,9.4
2024-03-09T10:21:01.169Z,9.4
2024-03-09T10:22:01.199Z,9.6
2024-03-09T10:23:01.250Z,9.5
2024-03-09T10:25:01.118Z,9.4
2024-03-09T10:29:01.291Z,9.6
2024-03-09T10:32:01.053Z,9.8
2024-03-09T10:33:01.138Z,9.9
2024-03-09T10:37:01.271Z,10.3
2024-03-09T10:39:01.082Z,10.3
2024-03-09T10:42:01.051Z,10.5
2024-03-09T10:44:01.385Z,10.6
2024-03-09T10:46:01.023Z,10.5
2024-03-09T10:47:01.255Z,10.6
2024-03-09T10:50:01.140Z,10.8
2024-03-09T10:53:01.191Z,11.1
2024-03-09T10:55:01.269Z,11.2
2024-03-09T10:57:01.212Z,11.3
2024-03-09T10:59:01.386Z,11.5
2024-03-09T11:01:01.271Z,11.4
2024-03-09T11:05:01.200Z,11.3
2024-03-09T11:08:01.157Z,11.2
2024-03-09T11:10:01.191Z,11.3
2024-03-09T11:11:01.242Z,11.4
2024-03-09T11:18:01.228Z,11.5
2024-03-09T11:19:01.350Z,11.3
2024-03-09T11:21:01.801Z,11.3
2024-03-09T11:24:01.212Z,11.4
2024-03-09T11:27:01.136Z,11.5
2024-03-09T11:32:01.207Z,11.5
2024-03-09T11:34:01.086Z,11.4
2024-03-09T11:35:01.148Z,11.5
2024-03-09T11:39:01.154Z,11.6
2024-03-09T11:41:01.131Z,11.3
2024-03-09T11:43:01.154Z,11.3
2024-03-09T11:45:01.178Z,11.2
2024-03-09T11:50:01.158Z,11.3
2024-03-09T11:52:01.121Z,11.4
2024-03-09T11:53:01.293Z,11.5
2024-03-09T11:55:01.219Z,11.4
2024-03-09T12:01:01.289Z,11.3
2024-03-09T12:02:01.427Z,11.2
2024-03-09T12:04:02.199Z,11.1
2024-03-09T12:06:01.095Z,11.2
2024-03-09T12:08:01.073Z,11.1
2024-03-09T12:10:01.068Z,11.3
2024-03-09T12:11:01.202Z,11.2
2024-03-09T12:12:01.224Z,11.3
2024-03-09T12:15:01.151Z,11.6
2024-03-09T12:17:01.189Z,11.6
2024-03-09T12:20:01.187Z,11.7
2024-03-09T12:21:01.285Z,11.5
2024-03-09T12:23:01.118Z,11.5
2024-03-09T12:25:01.115Z,11.6
2024-03-09T12:27:01.115Z,11.8
2024-03-09T12:29:01.353Z,11.7
2024-03-09T12:31:01.269Z,11.9
2024-03-09T12:33:01.334Z,11.9
2024-03-09T12:35:01.109Z,11.9
2024-03-09T12:37:01.326Z,11.6
2024-03-09T12:41:01.360Z,11.5
2024-03-09T12:45:01.097Z,11.6
2024-03-09T12:47:01.582Z,11.7
2024-03-09T12:49:01.197Z,11.6
2024-03-09T12:51:01.247Z,11.5
2024-03-09T12:53:01.166Z,11.7
2024-03-09T12:56:01.096Z,11.8
2024-03-09T12:57:01.092Z,11.6
2024-03-09T12:58:01.168Z,11.8
2024-03-09T12:59:01.257Z,11.6
2024-03-09T13:01:01.381Z,11.5
2024-03-09T13:05:01.067Z,11.3
2024-03-09T13:07:01.133Z,11.3
2024-03-09T13:10:03.878Z,11.2
2024-03-09T13:11:01.216Z,11.3
2024-03-09T13:13:01.178Z,11.5
2024-03-09T13:15:01.206Z,11.5
2024-03-09T13:22:01.959Z,11.6
2024-03-09T13:23:01.283Z,11.7
2024-03-09T13:25:01.061Z,11.9
2024-03-09T13:30:01.233Z,12
2024-03-09T13:31:01.261Z,12.2
2024-03-09T13:33:01.271Z,12.1
2024-03-09T13:35:01.123Z,12
2024-03-09T13:37:01.310Z,12.2
2024-03-09T13:38:01.177Z,11.9
2024-03-09T13:39:01.096Z,11.8
2024-03-09T13:41:01.208Z,11.5
2024-03-09T13:42:01.189Z,11.4
2024-03-09T13:43:01.170Z,11.3
2024-03-09T13:46:01.035Z,11.4
2024-03-09T13:48:01.316Z,11.3
2024-03-09T13:51:01.084Z,11.5
2024-03-09T13:56:01.164Z,11.6
2024-03-09T13:57:01.164Z,11.8
2024-03-09T13:58:01.156Z,11.6
2024-03-09T13:59:01.209Z,11.7
2024-03-09T14:01:01.299Z,11.8
2024-03-09T14:03:01.248Z,11.5
2024-03-09T14:05:01.098Z,11.5
2024-03-09T14:07:03.002Z,11.7
2024-03-09T14:08:01.231Z,11.6
2024-03-09T14:09:01.263Z,11.5
2024-03-09T14:11:01.372Z,11.5
2024-03-09T14:13:01.170Z,11.6
2024-03-09T14:15:01.219Z,11.5
2024-03-09T14:17:01.337Z,11.4
2024-03-09T14:20:01.189Z,11.4
2024-03-09T14:22:01.084Z,11.5
2024-03-09T14:23:01.134Z,11.3
2024-03-09T14:26:01.044Z,11.2
2024-03-09T14:27:01.073Z,11.3
2024-03-09T14:28:01.170Z,11.2
2024-03-09T14:31:01.292Z,11.1
2024-03-09T14:33:01.266Z,11
2024-03-09T14:35:01.126Z,10.9
2024-03-09T14:38:01.221Z,11
2024-03-09T14:42:01.105Z,10.6
2024-03-09T14:43:01.162Z,10.8
2024-03-09T14:44:01.202Z,10.7
2024-03-09T14:46:00.989Z,10.8
2024-03-09T14:47:01.166Z,10.7
2024-03-09T14:48:01.439Z,10.6
2024-03-09T14:50:01.194Z,10.7
2024-03-09T14:52:01.280Z,10.6
2024-03-09T14:55:01.096Z,10.5
2024-03-09T14:58:01.145Z,10.4
2024-03-09T15:02:01.080Z,10.4
2024-03-09T15:03:01.158Z,10.5
2024-03-09T15:07:01.255Z,10.4
2024-03-09T15:12:01.088Z,10.4
2024-03-09T15:14:01.209Z,10.3
2024-03-09T15:16:01.191Z,10.4
2024-03-09T15:18:01.186Z,10.5
2024-03-09T15:19:01.312Z,10.4
2024-03-09T15:20:01.214Z,10.5
2024-03-09T15:23:01.158Z,10.4
2024-03-09T15:25:01.226Z,10.3
2024-03-09T15:27:01.109Z,10.5
2024-03-09T15:28:01.205Z,10.4
2024-03-09T15:32:01.412Z,10.3
2024-03-09T15:36:01.141Z,10.2
2024-03-09T15:43:01.152Z,10.3
2024-03-09T15:45:01.088Z,10.1
2024-03-09T15:47:01.198Z,10
2024-03-09T15:48:01.233Z,10.1
2024-03-09T15:49:01.284Z,10.2
2024-03-09T15:54:01.204Z,10.1
2024-03-09T15:56:01.155Z,9.8
2024-03-09T16:02:01.255Z,9.9
2024-03-09T16:03:02.317Z,9.8
2024-03-09T16:04:01.213Z,9.7
2024-03-09T16:05:01.224Z,9.8
2024-03-09T16:07:01.139Z,9.6
2024-03-09T16:09:01.098Z,9.6
2024-03-09T16:14:01.029Z,9.5
2024-03-09T16:16:01.134Z,9.6
2024-03-09T16:17:01.197Z,9.4
2024-03-09T16:20:01.172Z,9.2
2024-03-09T16:21:01.178Z,9.4
2024-03-09T16:23:01.447Z,9.3
2024-03-09T16:25:01.274Z,9.3
2024-03-09T16:28:01.090Z,9.1
2024-03-09T16:29:01.219Z,9.2
2024-03-09T16:31:01.193Z,9.1
2024-03-09T16:33:01.154Z,9
2024-03-09T16:37:01.160Z,9
2024-03-09T16:40:01.040Z,8.9
2024-03-09T16:41:01.268Z,8.8
2024-03-09T16:43:01.119Z,8.7
2024-03-09T16:46:01.077Z,8.5
2024-03-09T16:48:01.155Z,8.6
2024-03-09T16:50:01.115Z,8.5
2024-03-09T16:51:01.363Z,8.4
2024-03-09T16:53:01.205Z,8.3
2024-03-09T16:54:01.222Z,8.4
2024-03-09T16:56:01.145Z,8.3
2024-03-09T16:57:01.409Z,8.2
2024-03-09T17:01:01.163Z,8.2
2024-03-09T17:03:01.134Z,8.1
2024-03-09T17:05:01.218Z,8
2024-03-09T17:07:01.064Z,8
2024-03-09T17:09:01.112Z,7.9
2024-03-09T17:11:01.116Z,7.8
2024-03-09T17:13:01.096Z,7.7
2024-03-09T17:14:01.122Z,7.8
2024-03-09T17:15:01.086Z,7.9
2024-03-09T17:17:01.108Z,7.6
2024-03-09T17:20:01.023Z,7.6
2024-03-09T17:21:01.028Z,7.7
2024-03-09T17:23:01.063Z,7.7
2024-03-09T17:24:01.223Z,7.6
2024-03-09T17:25:01.246Z,7.5
2024-03-09T17:29:01.263Z,7.4
2024-03-09T17:31:01.089Z,7.5
2024-03-09T17:32:01.288Z,7.4
2024-03-09T17:35:01.096Z,7.3
2024-03-09T17:37:01.058Z,7.3
2024-03-09T17:39:01.408Z,7.5
2024-03-09T17:45:01.174Z,7.1
2024-03-09T17:47:01.435Z,7.3
2024-03-09T17:49:01.040Z,7.1
2024-03-09T17:51:01.142Z,7.2
2024-03-09T17:54:01.094Z,7.1
2024-03-09T18:00:01.069Z,6.9
2024-03-09T18:02:01.003Z,7
2024-03-09T18:05:01.231Z,6.9
2024-03-09T18:07:01.170Z,6.8
2024-03-09T18:09:01.092Z,6.9
2024-03-09T18:10:01.136Z,6.8
2024-03-09T18:11:01.127Z,6.9
2024-03-09T18:13:01.178Z,6.9
2024-03-09T18:15:01.178Z,6.9
2024-03-09T18:17:01.055Z,6.8
2024-03-09T18:20:01.041Z,6.7
2024-03-09T18:25:01.342Z,6.8
2024-03-09T18:29:01.058Z,6.8
2024-03-09T18:33:01.066Z,6.6
2024-03-09T18:34:01.055Z,6.8
2024-03-09T18:35:01.141Z,6.7
2024-03-09T18:37:01.040Z,6.7
2024-03-09T18:39:01.184Z,6.5
2024-03-09T18:41:02.845Z,6.6
2024-03-09T18:47:01.109Z,6.5
2024-03-09T18:49:01.195Z,6.5
2024-03-09T18:52:01.041Z,6.6
2024-03-09T18:53:01.629Z,6.5
2024-03-09T18:57:01.217Z,6.4
2024-03-09T18:59:01.080Z,6.5
2024-03-09T19:01:01.071Z,6.4
2024-03-09T19:03:01.473Z,6.5
2024-03-09T19:04:01.188Z,6.3
2024-03-09T19:07:01.093Z,6.3
2024-03-09T19:09:01.136Z,6.3
2024-03-09T19:12:01.095Z,6.5
2024-03-09T19:16:01.136Z,6.4
2024-03-09T19:18:01.253Z,6.4
2024-03-09T19:23:01.106Z,6.4
2024-03-09T19:27:01.082Z,6.6
2024-03-09T19:30:01.064Z,6.5
2024-03-09T19:31:01.046Z,6.4
2024-03-09T19:35:01.125Z,6.3
2024-03-09T19:37:01.102Z,6.4
2024-03-09T19:38:01.394Z,6.5
2024-03-09T19:40:01.008Z,6.6
2024-03-09T19:41:01.094Z,6.4
2024-03-09T19:43:01.101Z,6.5
2024-03-09T19:48:01.357Z,6.6
2024-03-09T19:52:01.069Z,6.4
2024-03-09T19:54:01.090Z,6.5
2024-03-09T19:56:01.080Z,6.4
2024-03-09T19:57:01.077Z,6.5
2024-03-09T19:59:01.086Z,6.5
2024-03-09T20:00:01.137Z,6.6
2024-03-09T20:01:01.111Z,6.4
2024-03-09T20:03:01.300Z,6.5
2024-03-09T20:06:01.017Z,6.6
2024-03-09T20:07:01.224Z,6.5
2024-03-09T20:10:01.086Z,6.6
2024-03-09T20:13:01.374Z,6.5
2024-03-09T20:17:01.089Z,6.6
2024-03-09T20:20:01.116Z,6.4
2024-03-09T20:21:01.133Z,6.5
2024-03-09T20:23:01.102Z,6.4
2024-03-09T20:26:01.326Z,6.6
2024-03-09T20:28:00.971Z,6.6
2024-03-09T20:30:01.105Z,6.5
2024-03-09T20:33:01.133Z,6.6
2024-03-09T20:37:01.020Z,6.6
2024-03-09T20:40:01.042Z,6.5
2024-03-09T20:41:01.159Z,6.7
2024-03-09T20:43:01.027Z,6.5
2024-03-09T20:46:00.971Z,6.6
2024-03-09T20:47:01.040Z,6.5
2024-03-09T20:49:01.064Z,6.6
2024-03-09T20:51:01.141Z,6.5
2024-03-09T20:53:01.114Z,6.5
2024-03-09T20:55:01.090Z,6.5
2024-03-09T20:57:01.132Z,6.4
2024-03-09T21:03:01.066Z,6.6
2024-03-09T21:05:01.016Z,6.6
2024-03-09T21:08:00.972Z,6.5
2024-03-09T21:10:01.019Z,6.7
2024-03-09T21:11:01.089Z,6.5
2024-03-09T21:13:01.040Z,6.5
2024-03-09T21:17:01.146Z,6.4
2024-03-09T21:19:01.038Z,6.5
2024-03-09T21:21:01.068Z,6.4
2024-03-09T21:26:01.035Z,6.5
2024-03-09T21:27:01.066Z,6.4
2024-03-09T21:29:01.040Z,6.3
2024-03-09T21:30:01.099Z,6.4
2024-03-09T21:32:01.055Z,6.5
2024-03-09T21:33:01.037Z,6.3
2024-03-09T21:36:01.036Z,6.5
2024-03-09T21:38:01.024Z,6.5
2024-03-09T21:39:01.087Z,6.4
2024-03-09T21:41:01.062Z,6.5
2024-03-09T21:42:01.055Z,6.4
2024-03-09T21:44:01.021Z,6.5
2024-03-09T21:45:01.076Z,6.3
2024-03-09T21:47:01.148Z,6.5
2024-03-09T21:48:01.081Z,6.3
2024-03-09T21:52:00.997Z,6.3
2024-03-09T21:56:01.057Z,6.4
2024-03-09T21:57:01.040Z,6.2
2024-03-09T22:00:01.108Z,6.4
2024-03-09T22:02:01.217Z,6.3
2024-03-09T22:03:01.177Z,6.2
2024-03-09T22:06:00.970Z,6.3
2024-03-09T22:07:01.024Z,6.2
2024-03-09T22:09:01.015Z,6.2
2024-03-09T22:11:01.058Z,6.2
2024-03-09T22:13:01.008Z,6.1
2024-03-09T22:17:01.115Z,6
2024-03-09T22:19:01.063Z,6.1
2024-03-09T22:21:01.048Z,6.2
2024-03-09T22:23:01.058Z,6.1
2024-03-09T22:24:01.041Z,6
2024-03-09T22:28:01.090Z,6.1
2024-03-09T22:30:01.013Z,6
2024-03-09T22:34:01.103Z,6
2024-03-09T22:35:01.100Z,5.9
2024-03-09T22:37:01.017Z,5.9
2024-03-09T22:38:01.055Z,5.7
2024-03-09T22:39:01.036Z,6
2024-03-09T22:40:01.084Z,5.9
2024-03-09T22:48:01.045Z,5.8
2024-03-09T22:52:01.070Z,5.8
2024-03-09T22:54:01.035Z,5.9
2024-03-09T22:55:01.073Z,6
2024-03-09T22:56:01.058Z,5.8
2024-03-09T22:58:01.107Z,5.9
2024-03-09T22:59:01.109Z,5.8
2024-03-09T23:01:01.185Z,5.7
2024-03-09T23:03:01.048Z,5.8
2024-03-09T23:04:01.028Z,5.9
2024-03-09T23:09:01.251Z,5.8
2024-03-09T23:11:01.197Z,5.6
2024-03-09T23:12:01.255Z,5.8
2024-03-09T23:14:01.028Z,5.8
2024-03-09T23:16:01.059Z,5.9
2024-03-09T23:17:01.109Z,5.8
2024-03-09T23:20:01.177Z,5.8
2024-03-09T23:23:01.118Z,5.7
2024-03-09T23:25:01.053Z,5.7
2024-03-09T23:27:01.186Z,5.9
2024-03-09T23:29:01.090Z,5.8
2024-03-09T23:30:01.093Z,5.7
2024-03-09T23:32:01.163Z,5.7
2024-03-09T23:33:01.309Z,5.8
2024-03-09T23:36:01.079Z,5.6
2024-03-09T23:38:01.065Z,5.5
2024-03-09T23:40:01.094Z,5.6
2024-03-09T23:41:01.091Z,5.5
2024-03-09T23:43:01.106Z,5.6
2024-03-09T23:45:01.123Z,5.5
2024-03-09T23:47:01.066Z,5.5
2024-03-09T23:51:01.200Z,5.4
2024-03-09T23:53:01.231Z,5.4
2024-03-09T23:55:03.378Z,5.4
2024-03-09T23:57:01.196Z,5.6
2024-03-09T23:59:01.180Z,5.3
